Wassaic, New York
Current Conditions -  °F | °C
As of 7:53 AM on Friday 28 Nov 2014 (Local Time) from KPOU Reporting Station
Broken Clouds Broken Clouds  
Wind Chill: 22°   Ceiling: 4200
Heat Index: 22°   Visibility: 8mi
Dew Point: 18°   Wind: 0mph
Humidity: 85%   Direction: NA
Pressure: 30.14"   Gusts: NA
Location:  41.8°N, 73.56°W
Report Text: KPOU 281253Z 00000KT 8SM BKN042 M06/M08 A3014 RMK AO2 SLP205 T10561078
Loading
Personal Weather Stations






























Interactive Weather Map New forecast layout! Learn more

10-Day Weather Forecast

Advertisements
Track Severe Weather on mobile